Latest Weather Observations for Halls Creek

IDW60801

Issued at 4:34 pm WST Wednesday 22 February 2017 (issued every 30 minutes, with the page automatically refreshed every 10 minutes)

About weather observations | Map of weather stations | Latest weather observations for WA | Other Formats
Station Details ID: 002079 Name: HALLS CREEK AIRPORT Lat: -18.23 Lon: 127.67 Height: 422.0 m
Data from the previous 72 hours. | See also: Recent months at Halls Creek
Date/Time
WST
Temp
°C
App
Temp
°C
Dew
Point
°C
Rel
Hum
%
Delta-T
°C
Wind Press
QNH
hPa
Press
MSL
hPa
Rain since
9am
mm
Dir  Spd
km/h
Gust
km/h
Spd
kts
Gust
kts
22/04:30pm 34.2 34.2 15.1 31 12.1 S 9 17 5 9 1010.5 1007.2 0.0
22/04:00pm 35.2 34.6 14.5 29 13.0 SSW 11 17 6 9 1010.5 1007.2 0.0
22/03:30pm 35.5 35.9 14.7 28 13.1 WNW 6 11 3 6 1010.6 1007.3 0.0
22/03:00pm 35.4 35.0 15.2 30 12.8 SE 11 19 6 10 1010.7 1007.4 0.0
22/02:30pm 35.7 36.3 16.9 32 12.2 SSW 9 15 5 8 1010.9 1007.6 0.0
22/02:00pm 35.2 35.1 15.0 30 12.8 ESE 9 19 5 10 1011.2 1008.0 0.0
22/01:30pm 34.6 35.0 16.4 33 11.7 W 9 19 5 10 1011.4 1008.2 0.0
22/01:00pm 34.5 35.1 16.8 34 11.5 WSW 9 15 5 8 1011.7 1008.5 0.0
22/12:30pm 34.4 35.0 15.3 31 12.1 WNW 6 9 3 5 1012.1 1008.9 0.0
22/12:00pm 33.4 33.3 14.9 32 11.6 W 9 17 5 9 1012.6 1009.3 0.0
22/11:30am 33.6 33.9 14.6 31 11.9 NW 6 11 3 6 1013.1 1009.8 0.0
22/11:00am 32.7 31.8 14.8 34 11.2 SW 13 19 7 10 1013.6 1010.4 0.0
22/10:30am 31.9 32.4 17.4 42 9.4 WSW 11 19 6 10 1013.9 1010.7 0.0
22/10:00am 31.6 32.9 19.2 47 8.2 WSW 11 19 6 10 1014.2 1011.0 0.0
22/09:30am 30.4 30.9 20.0 53 7.0 SW 17 28 9 15 1014.5 1011.3 0.0
22/09:00am 30.4 31.9 21.2 58 6.2 WSW 15 20 8 11 1014.6 1011.4 0.0
22/08:30am 28.9 29.5 21.4 64 5.1 SW 20 28 11 15 1014.7 1011.5 0.0
22/08:00am 28.4 29.6 21.4 66 4.7 WSW 17 22 9 12 1014.7 1011.5 0.0
22/07:30am 27.6 30.3 22.1 72 3.8 WSW 11 19 6 10 1014.5 1011.3 0.0
22/07:00am 25.3 27.2 20.5 75 3.2 WSW 11 17 6 9 1014.4 1011.2 0.0
22/06:30am 23.3 25.0 18.4 74 3.1 SW 7 9 4 5 1014.3 1011.1 0.0
22/06:00am 21.2 22.3 17.0 77 2.6 WSW 7 9 4 5 1014.0 1010.8 0.0
22/05:30am 19.8 20.4 15.9 78 2.4 WSW 7 9 4 5 1013.6 1010.4 0.0
22/05:00am 19.8 20.2 15.4 76 2.6 WSW 7 9 4 5 1013.5 1010.3 0.0
22/04:30am 20.0 20.6 15.4 75 2.8 SW 6 7 3 4 1013.3 1010.1 0.0
22/04:00am 20.2 20.5 16.0 77 2.6 W 9 15 5 8 1013.1 1009.8 0.0
22/03:30am 19.3 21.7 16.9 86 1.5 CALM 0 0 0 0 1012.4 1009.2 0.0
22/03:00am 19.7 22.3 17.5 87 1.4 CALM 0 0 0 0 1012.2 1009.0 0.0
22/02:30am 19.8 22.5 17.8 88 1.3 CALM 0 0 0 0 1012.1 1008.9 0.0
22/02:00am 20.1 23.0 18.2 89 1.2 CALM 0 0 0 0 1012.0 1008.8 0.0
22/01:30am 20.3 23.2 18.1 87 1.4 CALM 0 0 0 0 1012.1 1008.9 0.0
22/01:00am 20.7 23.8 18.6 88 1.3 CALM 0 0 0 0 1012.2 1009.0 0.0
22/12:30am 21.1 24.0 19.0 88 1.3 ESE 2 7 1 4 1012.6 1009.3 0.0
22/12:00am 21.2 24.3 18.6 85 1.7 CALM 0 0 0 0 1012.7 1009.4 0.0
 
Date/Time
WST
Temp
°C
App
Temp
°C
Dew
Point
°C
Rel
Hum
%
Delta-T
°C
Wind Press
QNH
hPa
Press
MSL
hPa
Rain since
9am
mm
Dir  Spd
km/h
Gust
km/h
Spd
kts
Gust
kts
21/11:30pm 21.6 24.6 19.2 86 1.5 ESE 2 9 1 5 1012.8 1009.5 0.0
21/11:00pm 21.8 24.6 18.0 79 2.4 CALM 0 0 0 0 1013.0 1009.7 0.0
21/10:30pm 22.1 25.0 18.3 79 2.4 CALM 0 0 0 0 1013.1 1009.8 0.0
21/10:00pm 22.7 26.0 19.1 80 2.3 CALM 0 0 0 0 1013.3 1010.1 0.0
21/09:30pm 23.1 25.8 17.8 72 3.4 CALM 0 0 0 0 1013.4 1010.2 0.0
21/09:00pm 23.7 26.6 18.1 71 3.6 CALM 0 0 0 0 1013.3 1010.1 0.0
21/08:30pm 24.0 26.7 17.7 68 4.0 CALM 0 0 0 0 1013.1 1009.8 0.0
21/08:00pm 24.9 27.5 17.4 63 4.8 CALM 0 0 0 0 1012.9 1009.6 0.0
21/07:30pm 27.0 28.2 16.9 54 6.4 ENE 6 7 3 4 1012.6 1009.3 0.0
21/07:00pm 26.7 29.6 18.3 60 5.4 CALM 0 0 0 0 1012.3 1009.1 0.0
21/06:30pm 29.0 30.4 17.8 50 7.2 ESE 7 9 4 5 1011.8 1008.6 0.0
21/06:00pm 31.1 31.9 15.9 40 9.6 ENE 6 7 3 4 1011.3 1008.1 0.0
21/05:30pm 33.0 31.4 11.5 27 12.8 NE 11 13 6 7 1010.9 1007.6 0.0
21/05:00pm 33.9 33.0 10.5 24 13.8 N 6 9 3 5 1010.6 1007.3 0.0
21/04:30pm 34.1 32.3 9.4 22 14.3 ESE 9 13 5 7 1010.4 1007.1 0.0
21/04:00pm 34.4 32.4 10.3 23 14.2 E 11 17 6 9 1010.4 1007.1 0.0
21/03:30pm 34.3 33.1 10.2 23 14.2 ENE 7 15 4 8 1010.4 1007.1 0.0
21/03:00pm 34.5 33.1 11.0 24 14.0 ENE 9 17 5 9 1010.5 1007.2 0.0
21/02:30pm 34.2 32.4 10.7 24 13.9 E 11 19 6 10 1010.7 1007.4 0.0
21/02:00pm 34.2 32.9 11.4 25 13.7 SSE 9 20 5 11 1011.1 1007.9 0.0
21/01:30pm 33.9 31.8 11.1 25 13.6 SE 13 22 7 12 1011.4 1008.2 0.0
21/01:00pm 34.2 33.1 13.1 28 13.0 S 11 20 6 11 1011.8 1008.6 0.0
21/12:30pm 33.2 32.2 12.2 28 12.7 E 9 17 5 9 1012.2 1009.0 0.0
21/12:00pm 32.8 31.2 12.9 29 12.1 E 13 19 7 10 1013.1 1009.8 0.0
21/11:30am 32.5 30.9 12.7 30 12.0 NE 13 20 7 11 1013.7 1010.5 0.0
21/11:00am 32.3 31.8 12.5 30 12.0 ESE 7 17 4 9 1014.1 1010.9 0.0
21/10:30am 32.6 33.1 15.1 34 11.0 NNE 6 11 3 6 1014.5 1011.3 0.0
21/10:00am 31.6 30.8 12.9 32 11.3 ENE 9 15 5 8 1014.9 1011.7 0.0
21/09:30am 30.9 30.1 12.8 33 10.9 NNW 9 15 5 8 1015.2 1011.9 0.0
21/09:00am 30.7 30.1 13.5 35 10.5 NNE 9 13 5 7 1015.1 1011.8 0.0
21/08:30am 29.8 29.4 14.0 38 9.7 W 9 15 5 8 1015.2 1011.9 0.0
21/08:00am 28.8 29.5 17.0 49 7.5 W 9 13 5 7 1014.9 1011.7 0.0
21/07:30am 27.1 29.2 19.4 62 5.1 SW 7 11 4 6 1014.8 1011.6 0.0
21/07:00am 25.2 28.3 19.6 71 3.7 WSW 2 7 1 4 1014.5 1011.3 0.0
21/06:30am 23.3 25.7 19.7 80 2.3 WSW 6 9 3 5 1014.0 1010.8 0.0
21/06:00am 21.0 23.0 18.8 87 1.4 W 6 7 3 4 1013.5 1010.3 0.0
21/05:30am 20.1 20.6 17.5 85 1.6 WNW 11 13 6 7 1013.1 1009.8 0.0
21/05:00am 19.7 22.0 18.5 93 0.8 WNW 4 11 2 6 1012.7 1009.4 0.0
21/04:30am 19.9 22.9 18.4 91 0.9 CALM 0 0 0 0 1012.4 1009.2 0.0
21/04:00am 20.2 23.2 18.5 90 1.1 CALM 0 0 0 0 1012.0 1008.8 0.0
21/03:30am 20.6 23.7 18.7 89 1.2 CALM 0 0 0 0 1012.0 1008.8 0.0
21/03:00am 21.9 23.6 18.1 79 2.4 ENE 6 7 3 4 1011.9 1008.7 0.0
21/02:30am 22.1 24.0 18.5 80 2.3 ENE 6 7 3 4 1011.8 1008.6 0.0
21/02:00am 22.0 23.9 18.6 81 2.2 ENE 6 7 3 4 1011.7 1008.5 0.0
21/01:30am 22.0 24.3 19.9 88 1.4 ESE 7 13 4 7 1012.0 1008.8 0.0
21/01:00am 22.0 25.5 19.5 86 1.6 CALM 0 0 0 0 1011.9 1008.7 0.0
21/12:30am 22.4 26.3 20.3 88 1.4 CALM 0 0 0 0 1012.0 1008.8 0.0
21/12:00am 22.7 26.4 19.9 84 1.8 CALM 0 0 0 0 1011.9 1008.7 0.0
 
Date/Time
WST
Temp
°C
App
Temp
°C
Dew
Point
°C
Rel
Hum
%
Delta-T
°C
Wind Press
QNH
hPa
Press
MSL
hPa
Rain since
9am
mm
Dir  Spd
km/h
Gust
km/h
Spd
kts
Gust
kts
20/11:30pm 23.5 26.5 20.0 81 2.3 N 4 7 2 4 1012.0 1008.8 0.0
20/11:00pm 23.5 27.3 20.2 82 2.2 CALM 0 0 0 0 1012.3 1009.1 0.0
20/10:30pm 23.8 27.0 19.7 78 2.7 NE 2 7 1 4 1012.6 1009.3 0.0
20/10:00pm 24.6 28.3 20.7 79 2.6 ENE 2 6 1 3 1012.6 1009.3 0.0
20/09:30pm 26.1 28.6 20.2 70 3.9 NE 7 9 4 5 1012.6 1009.3 0.0
20/09:00pm 25.5 28.4 19.9 71 3.7 NE 4 9 2 5 1012.6 1009.3 0.0
20/08:30pm 25.7 29.1 19.3 67 4.2 CALM 0 0 0 0 1012.3 1009.1 0.0
20/08:00pm 27.5 29.5 18.8 59 5.7 ENE 6 9 3 5 1012.0 1008.8 0.0
20/07:30pm 28.1 29.3 17.3 52 6.9 E 7 11 4 6 1011.4 1008.2 0.0
20/07:00pm 29.1 29.1 16.3 46 8.1 ENE 11 13 6 7 1011.0 1007.8 0.0
20/06:30pm 30.3 30.9 16.7 44 8.7 ENE 9 13 5 7 1010.6 1007.3 0.0
20/06:00pm 31.3 31.6 16.1 40 9.7 ENE 9 13 5 7 1010.0 1006.7 0.0
20/05:30pm 32.5 31.5 14.6 34 11.2 ENE 13 15 7 8 1009.6 1006.4 0.0
20/05:00pm 33.3 32.4 14.8 32 11.6 ENE 13 20 7 11 1009.4 1006.2 0.0
20/04:30pm 33.9 33.1 13.9 30 12.4 ESE 11 17 6 9 1009.0 1005.8 0.0
20/04:00pm 33.9 32.5 14.4 31 12.2 ESE 15 22 8 12 1008.9 1005.7 0.0
20/03:30pm 34.2 33.4 15.1 31 12.1 SE 13 20 7 11 1008.8 1005.6 0.0
20/03:00pm 34.4 33.7 13.3 28 13.0 ENE 9 13 5 7 1008.8 1005.6 0.0
20/02:30pm 34.7 34.9 14.6 30 12.6 E 7 20 4 11 1008.9 1005.7 0.0
20/02:00pm 33.6 33.8 14.6 31 11.9 NNE 7 15 4 8 1009.0 1005.8 0.0
20/01:30pm 34.1 34.6 15.5 32 11.8 ENE 7 13 4 7 1009.3 1006.1 0.0
20/01:00pm 33.9 33.2 16.3 35 11.3 E 15 20 8 11 1009.7 1006.5 0.0
20/12:30pm 33.3 32.4 14.8 32 11.6 NNE 13 17 7 9 1010.1 1006.8 0.0
20/12:00pm 33.0 32.9 15.9 35 10.9 N 11 22 6 12 1010.6 1007.3 0.0
20/11:30am 31.9 30.6 15.8 38 10.2 NE 17 24 9 13 1011.2 1008.0 0.0
20/11:00am 32.3 32.2 17.0 40 9.9 NNE 13 20 7 11 1011.6 1008.4 0.0
20/10:30am 31.5 30.9 16.6 40 9.5 NE 15 22 8 12 1011.9 1008.7 0.0
20/10:00am 31.2 31.9 17.9 45 8.7 ENE 11 20 6 11 1012.3 1009.1 0.0
20/09:30am 31.0 32.7 18.4 47 8.3 E 7 11 4 6 1012.4 1009.2 0.0
20/09:00am 30.2 31.9 18.6 49 7.6 NNE 7 13 4 7 1012.7 1009.4 0.6
20/08:30am 29.7 32.1 20.0 56 6.5 ENE 7 13 4 7 1012.9 1009.6 0.6
20/08:00am 29.0 31.8 19.6 57 6.2 SE 4 9 2 5 1012.9 1009.6 0.6
20/07:30am 26.5 29.9 21.7 75 3.3 SW 6 9 3 5 1012.9 1009.6 0.6
20/07:00am 25.2 28.7 21.9 82 2.2 SW 6 9 3 5 1012.6 1009.3 0.6
20/06:30am 23.9 27.4 21.8 88 1.4 WSW 6 9 3 5 1012.3 1009.1 0.6
20/06:00am 22.8 25.8 21.3 91 1.0 W 7 9 4 5 1011.8 1008.6 0.6
20/05:30am 22.0 25.2 21.3 96 0.5 WSW 6 7 3 4 1011.5 1008.3 0.6
20/05:00am 22.3 26.8 21.5 95 0.5 CALM 0 0 0 0 1011.1 1007.9 0.6
20/04:30am 22.1 25.1 21.3 95 0.5 WSW 7 9 4 5 1010.6 1007.3 0.6
20/04:00am 22.3 25.5 21.3 94 0.7 SW 6 7 3 4 1010.4 1007.1 0.6
20/03:30am 22.5 25.7 21.3 93 0.8 SW 6 6 3 3 1010.2 1006.9 0.6
20/03:00am 22.9 26.0 21.4 91 1.0 SW 7 9 4 5 1010.2 1006.9 0.6
20/02:30am 23.3 25.9 21.2 88 1.4 WSW 9 11 5 6 1010.1 1006.8 0.6
20/02:00am 23.3 26.5 21.2 88 1.4 W 6 7 3 4 1010.0 1006.7 0.6
20/01:30am 23.5 26.7 21.6 89 1.3 WSW 7 7 4 4 1010.2 1006.9 0.6
20/01:00am 23.7 26.7 22.0 90 1.1 SW 9 9 5 5 1010.6 1007.3 0.6
20/12:30am 24.0 27.2 21.7 87 1.5 WSW 7 9 4 5 1010.8 1007.5 0.6
20/12:00am 24.4 27.3 21.7 85 1.8 SW 9 11 5 6 1011.1 1007.9 0.6
 
Date/Time
WST
Temp
°C
App
Temp
°C
Dew
Point
°C
Rel
Hum
%
Delta-T
°C
Wind Press
QNH
hPa
Press
MSL
hPa
Rain since
9am
mm
Dir  Spd
km/h
Gust
km/h
Spd
kts
Gust
kts
19/11:30pm 25.0 27.9 21.1 79 2.6 WNW 7 11 4 6 1011.4 1008.2 0.6
19/11:00pm 25.3 28.1 20.8 76 3.0 W 7 11 4 6 1012.0 1008.8 0.6
19/10:30pm 26.0 26.8 20.6 72 3.6 NE 17 35 9 19 1012.7 1009.4 0.6
19/10:00pm 25.6 29.2 21.3 77 2.9 W 4 7 2 4 1012.0 1008.8 0.6
19/09:30pm 26.1 29.7 22.0 78 2.8 NNW 6 7 3 4 1011.7 1008.5 0.6
19/09:00pm 26.0 29.6 22.1 79 2.7 WSW 6 7 3 4 1011.9 1008.7 0.6
19/08:30pm 26.6 31.2 21.8 75 3.3 CALM 0 0 0 0 1011.5 1008.3 0.6
19/08:00pm 26.6 29.7 21.4 73 3.5 W 7 11 4 6 1011.5 1008.3 0.6
19/07:30pm 27.2 30.4 21.7 72 3.7 W 7 11 4 6 1010.7 1007.4 0.6
19/07:00pm 27.3 32.3 22.5 75 3.3 CALM 0 0 0 0 1009.8 1006.6 0.6
19/06:30pm 27.7 31.1 21.7 70 4.1 W 6 11 3 6 1009.6 1006.4 0.6
19/06:00pm 28.0 32.6 21.8 69 4.2 CALM 0 6 0 3 1009.2 1006.0 0.6
19/05:30pm 28.4 31.7 20.7 63 5.2 NNW 4 9 2 5 1009.0 1005.8 0.6
19/05:00pm 28.9 30.3 20.4 60 5.7 NNE 13 19 7 10 1008.0 1004.7 0.6

Other Formats:

Comma delimited format used in spreadsheet applications
http://www.bom.gov.au/fwo/IDW60801/IDW60801.94212.axf

JavaScript Object Notation format (JSON) in row-major order
http://www.bom.gov.au/fwo/IDW60801/IDW60801.94212.json